Time;durP1;ratioP1;P1;durP2;ratioP2;P2;SDS_P1;SDS_P2;PMS_P1;PMS_P2;Temp;Humidity;BMP_temperature;BMP_pressure;BME280_temperature;BME280_humidity;BME280_pressure;Samples;Min_cycle;Max_cycle;Signal;HPM_P1;HPM_P2
2023/07/05 00:01:19;;;;;;;16.07;9.40;;;;;;;;;;5095859;28;20455;-65
2023/07/05 00:03:46;;;;;;;12.87;8.10;;;;;;;;;;5095937;28;20487;-66
2023/07/05 00:06:13;;;;;;;11.87;7.87;;;;;;;;;;5095664;28;20432;-66
2023/07/05 00:08:41;;;;;;;11.87;8.23;;;;;;;;;;5095243;28;21035;-65
2023/07/05 00:11:11;;;;;;;17.87;10.60;;;;;;;;;;5095599;28;20799;-65
2023/07/05 00:13:38;;;;;;;16.47;8.53;;;;;;;;;;5095622;28;20432;-66
2023/07/05 00:16:06;;;;;;;13.03;9.23;;;;;;;;;;5079207;28;20468;-66
2023/07/05 00:18:33;;;;;;;23.90;8.80;;;;;;;;;;5075527;28;20528;-65
2023/07/05 00:21:01;;;;;;;12.93;9.03;;;;;;;;;;5074861;28;20472;-65
2023/07/05 00:23:28;;;;;;;9.67;7.93;;;;;;;;;;5075799;28;20875;-65
2023/07/05 00:25:56;;;;;;;10.83;8.07;;;;;;;;;;5074842;28;20465;-65
2023/07/05 00:28:24;;;;;;;13.97;7.93;;;;;;;;;;5075345;28;20440;-66
2023/07/05 00:30:52;;;;;;;19.07;8.77;;;;;;;;;;5074823;28;20452;-65
2023/07/05 00:33:19;;;;;;;10.00;9.00;;;;;;;;;;5075121;28;20442;-65
2023/07/05 00:35:48;;;;;;;12.00;8.43;;;;;;;;;;5073656;28;20441;-65
2023/07/05 00:38:15;;;;;;;14.27;8.50;;;;;;;;;;5074428;28;20441;-66
2023/07/05 00:40:43;;;;;;;13.70;8.47;;;;;;;;;;5074869;28;20447;-66
2023/07/05 00:43:10;;;;;;;12.57;9.00;;;;;;;;;;5074258;28;20484;-65
2023/07/05 00:45:50;;;;;;;9.43;8.20;;;;;;;;;;5074536;28;20440;-65
2023/07/05 00:48:19;;;;;;;11.33;9.30;;;;;;;;;;5074772;28;20436;-66
2023/07/05 00:50:49;;;;;;;9.80;8.07;;;;;;;;;;5074454;28;20546;-66
2023/07/05 00:53:17;;;;;;;10.20;8.33;;;;;;;;;;5074178;28;20434;-66
2023/07/05 00:55:47;;;;;;;13.07;8.17;;;;;;;;;;5074651;28;20455;-66
2023/07/05 00:58:15;;;;;;;15.20;8.73;;;;;;;;;;5074785;28;20784;-66
2023/07/05 01:00:42;;;;;;;15.80;8.83;;;;;;;;;;5073769;28;20453;-66
2023/07/05 01:03:12;;;;;;;18.80;9.30;;;;;;;;;;5074177;28;20480;-65
2023/07/05 01:05:39;;;;;;;10.20;8.20;;;;;;;;;;5074183;28;20446;-66
2023/07/05 01:08:07;;;;;;;13.23;8.40;;;;;;;;;;5074235;28;20439;-65
2023/07/05 01:10:34;;;;;;;15.77;9.80;;;;;;;;;;5073988;28;20446;-66
2023/07/05 01:13:04;;;;;;;10.80;8.67;;;;;;;;;;5073789;28;21010;-65
2023/07/05 01:15:34;;;;;;;13.13;7.97;;;;;;;;;;5073612;28;20447;-66
2023/07/05 01:18:06;;;;;;;8.40;7.57;;;;;;;;;;5074213;28;20441;-65
2023/07/05 01:20:39;;;;;;;13.43;8.10;;;;;;;;;;5073888;28;20469;-67
2023/07/05 01:23:20;;;;;;;8.87;7.83;;;;;;;;;;5073547;28;20468;-65
2023/07/05 01:26:06;;;;;;;8.93;7.50;;;;;;;;;;5074223;28;20433;-66
2023/07/05 01:28:47;;;;;;;9.07;7.10;;;;;;;;;;5073750;28;20442;-65
2023/07/05 01:31:29;;;;;;;12.00;7.77;;;;;;;;;;5073774;28;20460;-66
2023/07/05 01:34:01;;;;;;;10.47;7.90;;;;;;;;;;5060899;28;20459;-65
2023/07/05 01:36:28;;;;;;;12.73;8.40;;;;;;;;;;5073379;28;20431;-65
2023/07/05 01:38:56;;;;;;;10.87;7.97;;;;;;;;;;5074133;28;20437;-65
2023/07/05 01:41:24;;;;;;;10.40;8.10;;;;;;;;;;5073758;28;20456;-66
2023/07/05 01:43:51;;;;;;;13.40;8.90;;;;;;;;;;5073682;28;20485;-66
2023/07/05 01:46:23;;;;;;;16.03;9.10;;;;;;;;;;5072964;28;20923;-66
2023/07/05 01:48:59;;;;;;;11.33;9.33;;;;;;;;;;5073542;28;20449;-66
2023/07/05 01:51:33;;;;;;;15.03;9.63;;;;;;;;;;5073799;28;20425;-66
2023/07/05 01:54:02;;;;;;;11.03;9.93;;;;;;;;;;5073538;28;20486;-66
2023/07/05 01:56:32;;;;;;;13.50;8.70;;;;;;;;;;5073082;28;20553;-66
2023/07/05 01:59:01;;;;;;;13.10;8.70;;;;;;;;;;5073343;28;20908;-65
2023/07/05 02:01:29;;;;;;;11.50;8.93;;;;;;;;;;5073180;28;20449;-66
2023/07/05 02:03:57;;;;;;;16.13;9.57;;;;;;;;;;5073743;28;20529;-66
2023/07/05 02:06:24;;;;;;;10.57;9.27;;;;;;;;;;5073340;28;20442;-66
2023/07/05 02:08:53;;;;;;;16.27;9.70;;;;;;;;;;5073952;28;20745;-65
2023/07/05 02:11:20;;;;;;;10.60;8.93;;;;;;;;;;5073146;28;20452;-66
2023/07/05 02:13:47;;;;;;;13.30;9.27;;;;;;;;;;5073528;28;20452;-65
2023/07/05 02:16:14;;;;;;;14.97;9.80;;;;;;;;;;5073105;28;20452;-65
2023/07/05 02:18:41;;;;;;;13.13;8.87;;;;;;;;;;5073245;28;20441;-66
2023/07/05 02:21:12;;;;;;;14.33;9.80;;;;;;;;;;5073275;28;20475;-66
2023/07/05 02:23:39;;;;;;;13.50;8.93;;;;;;;;;;5073392;28;20482;-66
2023/07/05 02:26:08;;;;;;;14.50;9.40;;;;;;;;;;5073138;28;20455;-67
2023/07/05 02:28:36;;;;;;;13.50;9.50;;;;;;;;;;5073504;28;20785;-66
2023/07/05 02:31:06;;;;;;;16.47;9.17;;;;;;;;;;5072964;28;20450;-66
2023/07/05 02:33:35;;;;;;;11.13;9.47;;;;;;;;;;5072942;28;20447;-66
2023/07/05 02:36:08;;;;;;;10.77;9.50;;;;;;;;;;5073140;28;20826;-65
2023/07/05 02:38:35;;;;;;;10.47;9.37;;;;;;;;;;5072739;28;20457;-65
2023/07/05 02:41:03;;;;;;;11.60;8.80;;;;;;;;;;5073478;28;20444;-65
2023/07/05 02:43:32;;;;;;;14.43;8.90;;;;;;;;;;5072467;28;20480;-66
2023/07/05 02:45:59;;;;;;;14.70;8.77;;;;;;;;;;5072803;28;20479;-65
2023/07/05 02:48:26;;;;;;;12.77;10.43;;;;;;;;;;5072899;28;20442;-66
2023/07/05 02:50:54;;;;;;;10.93;8.47;;;;;;;;;;5073190;28;20463;-65
2023/07/05 02:53:21;;;;;;;11.50;8.20;;;;;;;;;;5072885;28;20449;-65
2023/07/05 02:55:48;;;;;;;9.47;7.83;;;;;;;;;;5072515;28;20451;-66
2023/07/05 02:58:15;;;;;;;10.23;9.23;;;;;;;;;;5074422;28;20523;-65
2023/07/05 03:00:45;;;;;;;12.20;8.97;;;;;;;;;;5076738;28;20478;-65
2023/07/05 03:03:12;;;;;;;9.30;8.03;;;;;;;;;;5076886;28;20552;-66
2023/07/05 03:05:39;;;;;;;11.10;8.37;;;;;;;;;;5076498;28;20487;-66
2023/07/05 03:08:07;;;;;;;13.83;9.03;;;;;;;;;;5076430;28;20467;-65
2023/07/05 03:10:38;;;;;;;11.17;8.23;;;;;;;;;;5076705;28;20443;-65
2023/07/05 03:13:05;;;;;;;11.27;7.33;;;;;;;;;;5076076;28;20438;-65
2023/07/05 03:15:32;;;;;;;8.70;7.20;;;;;;;;;;5076654;28;20444;-66
2023/07/05 03:18:01;;;;;;;12.37;7.50;;;;;;;;;;5076204;28;20438;-66
2023/07/05 03:20:28;;;;;;;9.37;7.23;;;;;;;;;;5075993;28;20468;-65
2023/07/05 03:22:55;;;;;;;9.20;8.27;;;;;;;;;;5075972;28;20945;-65
2023/07/05 03:25:22;;;;;;;8.03;7.00;;;;;;;;;;5076131;28;20473;-66
2023/07/05 03:27:50;;;;;;;7.50;6.53;;;;;;;;;;5076068;28;20453;-66
2023/07/05 03:30:17;;;;;;;9.37;5.90;;;;;;;;;;5075937;28;20448;-66
2023/07/05 03:32:44;;;;;;;6.13;5.53;;;;;;;;;;5075968;28;20443;-66
2023/07/05 03:35:13;;;;;;;8.30;5.50;;;;;;;;;;5075984;28;20452;-66
2023/07/05 03:37:41;;;;;;;9.00;5.70;;;;;;;;;;5075905;28;20444;-66
2023/07/05 03:40:08;;;;;;;6.23;5.63;;;;;;;;;;5075582;28;20465;-65
2023/07/05 03:42:37;;;;;;;6.20;5.57;;;;;;;;;;5075844;28;20435;-65
2023/07/05 03:45:04;;;;;;;9.43;5.80;;;;;;;;;;5075513;28;20479;-65
2023/07/05 03:47:31;;;;;;;5.67;5.10;;;;;;;;;;5075722;28;20880;-66
2023/07/05 03:49:58;;;;;;;5.47;4.97;;;;;;;;;;5075519;28;20522;-65
2023/07/05 03:52:27;;;;;;;8.67;5.60;;;;;;;;;;5075843;28;20443;-66
2023/07/05 03:54:54;;;;;;;8.73;5.13;;;;;;;;;;5087350;28;20944;-66
2023/07/05 03:57:22;;;;;;;5.70;5.03;;;;;;;;;;5095336;28;20907;-66
2023/07/05 03:59:49;;;;;;;7.00;4.67;;;;;;;;;;5095267;28;20440;-66
2023/07/05 04:02:16;;;;;;;6.73;4.30;;;;;;;;;;5095860;28;20554;-65
2023/07/05 04:04:44;;;;;;;5.40;4.70;;;;;;;;;;5095453;28;20484;-66
2023/07/05 04:07:11;;;;;;;6.77;4.57;;;;;;;;;;5095166;28;20436;-66
2023/07/05 04:09:40;;;;;;;5.27;4.77;;;;;;;;;;5095067;28;20531;-66
2023/07/05 04:12:08;;;;;;;7.10;5.17;;;;;;;;;;5095202;28;20469;-65
2023/07/05 04:14:35;;;;;;;4.40;4.00;;;;;;;;;;5095383;28;20451;-66
2023/07/05 04:17:02;;;;;;;8.40;4.60;;;;;;;;;;5095406;28;20440;-65
2023/07/05 04:19:30;;;;;;;4.10;3.70;;;;;;;;;;5095126;28;20437;-65
2023/07/05 04:21:57;;;;;;;4.93;3.77;;;;;;;;;;5095579;28;20440;-66
2023/07/05 04:24:24;;;;;;;4.20;3.80;;;;;;;;;;5094667;28;21000;-66
2023/07/05 04:26:53;;;;;;;6.20;4.10;;;;;;;;;;5095305;28;20547;-65
2023/07/05 04:29:20;;;;;;;6.63;3.80;;;;;;;;;;5095097;28;20445;-66
2023/07/05 04:31:47;;;;;;;4.67;3.90;;;;;;;;;;5095246;28;20543;-65
2023/07/05 04:34:14;;;;;;;6.00;3.53;;;;;;;;;;5095084;28;20445;-68
2023/07/05 04:36:42;;;;;;;3.67;3.30;;;;;;;;;;5095338;28;20452;-69
2023/07/05 04:39:09;;;;;;;4.00;3.40;;;;;;;;;;5094879;28;20444;-65
2023/07/05 04:41:36;;;;;;;4.07;3.70;;;;;;;;;;5094904;28;20448;-66
2023/07/05 04:44:06;;;;;;;2.33;2.13;;;;;;;;;;5094759;28;20449;-65
2023/07/05 04:46:33;;;;;;;3.77;2.97;;;;;;;;;;5095029;28;20451;-65
2023/07/05 04:49:00;;;;;;;3.10;2.80;;;;;;;;;;5094679;28;20440;-66
2023/07/05 04:51:27;;;;;;;3.53;2.80;;;;;;;;;;5094912;28;20449;-65
2023/07/05 04:53:54;;;;;;;4.47;3.00;;;;;;;;;;5094474;28;20442;-65
2023/07/05 04:56:22;;;;;;;2.63;2.43;;;;;;;;;;5094690;28;20445;-65
2023/07/05 04:58:49;;;;;;;3.47;2.50;;;;;;;;;;5094200;28;20443;-65
2023/07/05 05:01:19;;;;;;;3.13;2.50;;;;;;;;;;5094156;28;20483;-65
2023/07/05 05:03:46;;;;;;;3.00;2.70;;;;;;;;;;5094398;28;20441;-65
2023/07/05 05:06:13;;;;;;;2.90;2.70;;;;;;;;;;5094458;28;20476;-65
2023/07/05 05:08:41;;;;;;;4.00;2.93;;;;;;;;;;5093954;28;20451;-66
2023/07/05 05:11:08;;;;;;;3.20;2.57;;;;;;;;;;5093930;28;20967;-65
2023/07/05 05:13:36;;;;;;;6.60;3.07;;;;;;;;;;5093821;28;20945;-67
2023/07/05 05:16:04;;;;;;;4.43;2.53;;;;;;;;;;5094258;28;20530;-65
2023/07/05 05:18:33;;;;;;;3.40;2.90;;;;;;;;;;5094176;28;20538;-64
2023/07/05 05:21:01;;;;;;;3.07;2.77;;;;;;;;;;5093342;28;20477;-65
2023/07/05 05:23:29;;;;;;;4.50;3.30;;;;;;;;;;5093868;28;20443;-65
2023/07/05 05:25:56;;;;;;;4.30;2.80;;;;;;;;;;5093487;28;20503;-65
2023/07/05 05:28:23;;;;;;;3.37;3.07;;;;;;;;;;5094264;28;20447;-64
2023/07/05 05:30:51;;;;;;;3.73;3.00;;;;;;;;;;5093921;28;20464;-64
2023/07/05 05:33:18;;;;;;;5.03;2.70;;;;;;;;;;5093946;28;20449;-64
2023/07/05 05:35:50;;;;;;;3.40;2.97;;;;;;;;;;5093759;28;20502;-65
2023/07/05 05:38:18;;;;;;;7.37;3.83;;;;;;;;;;5094055;28;20445;-70
2023/07/05 05:40:46;;;;;;;3.77;3.43;;;;;;;;;;5093612;28;20440;-64
2023/07/05 05:43:13;;;;;;;4.40;3.40;;;;;;;;;;5093721;28;20478;-64
2023/07/05 05:45:40;;;;;;;6.70;3.90;;;;;;;;;;5093560;28;20474;-64
2023/07/05 05:48:07;;;;;;;5.27;4.53;;;;;;;;;;5093470;28;20957;-65
2023/07/05 05:50:35;;;;;;;4.30;3.63;;;;;;;;;;5093233;28;20452;-65
2023/07/05 05:53:03;;;;;;;4.53;4.13;;;;;;;;;;5093730;28;20482;-65
2023/07/05 05:55:31;;;;;;;4.63;3.37;;;;;;;;;;5092937;28;20446;-64
2023/07/05 05:57:58;;;;;;;6.53;3.80;;;;;;;;;;5093516;28;20771;-65
2023/07/05 06:00:25;;;;;;;4.10;3.33;;;;;;;;;;5093445;28;20523;-65
2023/07/05 06:02:53;;;;;;;4.53;3.70;;;;;;;;;;5093476;28;20441;-64
2023/07/05 06:05:20;;;;;;;5.60;3.83;;;;;;;;;;5093320;28;20471;-64
2023/07/05 06:07:47;;;;;;;9.03;3.70;;;;;;;;;;5093315;28;20540;-65
2023/07/05 06:10:16;;;;;;;4.00;3.60;;;;;;;;;;5092988;28;20457;-64
2023/07/05 06:12:43;;;;;;;4.03;3.63;;;;;;;;;;5093091;28;20447;-65
2023/07/05 06:15:11;;;;;;;3.93;3.30;;;;;;;;;;5093252;28;20833;-65
2023/07/05 06:17:39;;;;;;;6.20;3.10;;;;;;;;;;5092982;28;20950;-65
2023/07/05 06:20:07;;;;;;;5.93;3.93;;;;;;;;;;5092963;28;20559;-65
2023/07/05 06:22:34;;;;;;;5.07;4.40;;;;;;;;;;5093635;28;20448;-65
2023/07/05 06:25:01;;;;;;;5.57;3.40;;;;;;;;;;5092899;28;20486;-65
2023/07/05 06:27:29;;;;;;;6.03;4.03;;;;;;;;;;5093025;28;20793;-65
2023/07/05 06:29:57;;;;;;;3.80;3.07;;;;;;;;;;5092752;28;20452;-65
2023/07/05 06:32:24;;;;;;;9.20;3.90;;;;;;;;;;5093697;28;20884;-64
2023/07/05 06:34:51;;;;;;;3.63;3.20;;;;;;;;;;5097580;28;20456;-66
2023/07/05 06:37:18;;;;;;;3.87;3.47;;;;;;;;;;5097583;28;20539;-65
2023/07/05 06:39:45;;;;;;;4.93;3.40;;;;;;;;;;5097211;28;20452;-65
2023/07/05 06:42:13;;;;;;;7.07;4.43;;;;;;;;;;5097078;28;20436;-65
2023/07/05 06:44:42;;;;;;;4.57;3.90;;;;;;;;;;5097055;28;20447;-65
2023/07/05 06:47:09;;;;;;;4.73;3.50;;;;;;;;;;5097151;28;20454;-65
2023/07/05 06:49:36;;;;;;;5.20;3.73;;;;;;;;;;5096725;28;20443;-64
2023/07/05 06:52:03;;;;;;;4.37;3.13;;;;;;;;;;5096994;28;20443;-65
2023/07/05 06:54:31;;;;;;;5.40;3.50;;;;;;;;;;5096711;28;20986;-65
2023/07/05 06:56:59;;;;;;;5.40;3.90;;;;;;;;;;5097070;28;20791;-64
2023/07/05 06:59:27;;;;;;;5.07;3.57;;;;;;;;;;5096634;28;20444;-65
2023/07/05 07:01:55;;;;;;;5.83;3.77;;;;;;;;;;5096333;28;20476;-64
2023/07/05 07:04:22;;;;;;;4.40;3.23;;;;;;;;;;5096722;28;20440;-64
2023/07/05 07:06:49;;;;;;;7.27;4.83;;;;;;;;;;5096455;28;20488;-65
2023/07/05 07:09:18;;;;;;;4.60;3.60;;;;;;;;;;5096386;28;20450;-65
2023/07/05 07:11:45;;;;;;;4.10;3.00;;;;;;;;;;5096165;28;20880;-65
2023/07/05 07:14:12;;;;;;;7.10;2.93;;;;;;;;;;5096587;28;20444;-65
2023/07/05 07:16:39;;;;;;;3.50;3.17;;;;;;;;;;5096539;28;20545;-65
2023/07/05 07:19:08;;;;;;;3.27;2.97;;;;;;;;;;5096743;28;20441;-65
2023/07/05 07:21:35;;;;;;;3.10;2.80;;;;;;;;;;5096415;28;20469;-66
2023/07/05 07:24:02;;;;;;;3.80;3.33;;;;;;;;;;5096345;28;20440;-65
2023/07/05 07:26:29;;;;;;;6.90;3.20;;;;;;;;;;5095889;28;20569;-65
2023/07/05 07:28:57;;;;;;;4.90;3.33;;;;;;;;;;5096036;28;20445;-64
2023/07/05 07:31:25;;;;;;;4.47;3.13;;;;;;;;;;5096192;28;20448;-64
2023/07/05 07:33:53;;;;;;;4.53;2.80;;;;;;;;;;5096158;28;20802;-65
2023/07/05 07:36:22;;;;;;;2.90;2.70;;;;;;;;;;5096535;28;20442;-65
2023/07/05 07:38:50;;;;;;;3.27;2.97;;;;;;;;;;5096391;28;20552;-64
2023/07/05 07:41:17;;;;;;;5.10;3.50;;;;;;;;;;5095738;28;20479;-64
2023/07/05 07:43:45;;;;;;;8.37;3.20;;;;;;;;;;5095112;28;20448;-65
2023/07/05 07:46:12;;;;;;;4.80;3.47;;;;;;;;;;5095470;28;20570;-65
2023/07/05 07:48:40;;;;;;;4.67;3.43;;;;;;;;;;5095955;28;20457;-65
2023/07/05 07:51:07;;;;;;;3.63;3.07;;;;;;;;;;5095557;28;20446;-65
2023/07/05 07:53:36;;;;;;;4.40;3.23;;;;;;;;;;5095447;28;20440;-65
2023/07/05 07:56:11;;;;;;;6.20;3.00;;;;;;;;;;5095780;28;20447;-66
2023/07/05 07:58:38;;;;;;;4.40;3.30;;;;;;;;;;5096083;28;20820;-65
2023/07/05 08:01:11;;;;;;;3.33;3.03;;;;;;;;;;5095976;28;20458;-67
2023/07/05 08:03:38;;;;;;;4.30;2.77;;;;;;;;;;5095688;28;20775;-65
2023/07/05 08:06:06;;;;;;;4.33;3.00;;;;;;;;;;5095240;28;20475;-64
2023/07/05 08:08:33;;;;;;;4.33;3.10;;;;;;;;;;5095496;28;20494;-64
2023/07/05 08:11:02;;;;;;;4.30;2.63;;;;;;;;;;5095771;28;20444;-65
2023/07/05 08:13:30;;;;;;;9.77;2.97;;;;;;;;;;5095362;28;20450;-64
2023/07/05 08:15:57;;;;;;;4.47;2.80;;;;;;;;;;5095330;28;20457;-66
2023/07/05 08:18:24;;;;;;;4.00;2.37;;;;;;;;;;5095411;28;20487;-65
2023/07/05 08:20:51;;;;;;;4.07;2.80;;;;;;;;;;5095335;28;20472;-64
2023/07/05 08:23:18;;;;;;;5.93;2.67;;;;;;;;;;5095264;28;20445;-65
2023/07/05 08:25:54;;;;;;;3.53;3.20;;;;;;;;;;5094948;28;20485;-65
2023/07/05 08:28:22;;;;;;;4.67;2.80;;;;;;;;;;5095357;28;20538;-65
2023/07/05 08:30:54;;;;;;;3.80;2.73;;;;;;;;;;5095647;28;20482;-70
2023/07/05 08:33:21;;;;;;;4.63;2.70;;;;;;;;;;5094647;28;20439;-64
2023/07/05 08:35:49;;;;;;;3.90;3.00;;;;;;;;;;5094938;28;20809;-64
2023/07/05 08:38:18;;;;;;;8.80;2.70;;;;;;;;;;5094692;28;20562;-65
2023/07/05 08:40:48;;;;;;;5.73;2.80;;;;;;;;;;5094690;28;20433;-64
2023/07/05 08:43:30;;;;;;;4.60;2.70;;;;;;;;;;5094334;28;20441;-64
2023/07/05 08:46:02;;;;;;;6.27;2.50;;;;;;;;;;5094474;28;20527;-64
2023/07/05 08:48:30;;;;;;;2.90;2.60;;;;;;;;;;5094737;28;20448;-64
2023/07/05 08:50:58;;;;;;;3.53;2.70;;;;;;;;;;5094844;28;20470;-65
2023/07/05 08:53:25;;;;;;;8.63;2.67;;;;;;;;;;5094201;28;20434;-66
2023/07/05 08:55:54;;;;;;;5.10;2.20;;;;;;;;;;5093287;28;20964;-64
2023/07/05 08:58:23;;;;;;;6.90;2.70;;;;;;;;;;5094419;28;20536;-65
2023/07/05 09:00:53;;;;;;;4.33;2.90;;;;;;;;;;5094495;28;20471;-65
2023/07/05 09:03:23;;;;;;;2.30;2.10;;;;;;;;;;5094768;28;20439;-64
2023/07/05 09:05:54;;;;;;;4.17;2.70;;;;;;;;;;5094493;28;20610;-65
2023/07/05 09:08:26;;;;;;;3.77;2.70;;;;;;;;;;5094567;28;20427;-65
2023/07/05 09:10:55;;;;;;;2.80;2.37;;;;;;;;;;5094561;28;20526;-65
2023/07/05 09:13:24;;;;;;;3.83;2.83;;;;;;;;;;5093401;28;20481;-65
2023/07/05 09:15:56;;;;;;;4.27;2.70;;;;;;;;;;5093973;28;20462;-64
2023/07/05 09:18:31;;;;;;;3.13;2.40;;;;;;;;;;5094534;28;20433;-64
2023/07/05 09:21:04;;;;;;;3.93;2.73;;;;;;;;;;5094349;28;20479;-64
2023/07/05 09:23:34;;;;;;;4.63;3.07;;;;;;;;;;5094145;28;20434;-64
2023/07/05 09:26:03;;;;;;;3.17;2.83;;;;;;;;;;5093766;28;20979;-64
2023/07/05 09:28:33;;;;;;;4.33;2.80;;;;;;;;;;5093781;28;20545;-65
2023/07/05 09:31:01;;;;;;;8.23;2.37;;;;;;;;;;5094238;28;20475;-65
2023/07/05 09:33:33;;;;;;;4.20;2.70;;;;;;;;;;5093968;28;20500;-64
2023/07/05 09:36:04;;;;;;;4.53;3.17;;;;;;;;;;5093828;28;20467;-65
2023/07/05 09:38:34;;;;;;;19.30;3.07;;;;;;;;;;5093626;28;20519;-63
2023/07/05 09:41:04;;;;;;;4.20;3.40;;;;;;;;;;5094656;28;20429;-64
2023/07/05 09:43:32;;;;;;;3.73;2.40;;;;;;;;;;5094065;28;20573;-64
2023/07/05 09:46:01;;;;;;;3.90;2.50;;;;;;;;;;5093425;28;20479;-64
2023/07/05 09:48:28;;;;;;;6.80;2.90;;;;;;;;;;5093867;28;20445;-64
2023/07/05 09:51:03;;;;;;;3.17;2.70;;;;;;;;;;5093527;28;20525;-64
2023/07/05 09:53:37;;;;;;;3.77;2.60;;;;;;;;;;5093449;28;20440;-64
2023/07/05 09:56:08;;;;;;;3.67;2.23;;;;;;;;;;5093458;28;20434;-64
2023/07/05 09:58:36;;;;;;;4.20;2.70;;;;;;;;;;5093376;28;20427;-64
2023/07/05 10:01:04;;;;;;;2.63;2.00;;;;;;;;;;5093549;28;20460;-64
2023/07/05 10:03:34;;;;;;;3.87;2.73;;;;;;;;;;5093543;28;20449;-64
2023/07/05 10:06:07;;;;;;;11.30;3.20;;;;;;;;;;5094114;28;20478;-64
2023/07/05 10:08:43;;;;;;;2.83;2.47;;;;;;;;;;5093165;28;20441;-65
2023/07/05 10:11:19;;;;;;;6.20;3.00;;;;;;;;;;5094309;28;20493;-64
2023/07/05 10:13:48;;;;;;;3.80;2.50;;;;;;;;;;5093714;28;20433;-64
2023/07/05 10:16:16;;;;;;;4.00;2.40;;;;;;;;;;5093485;28;20452;-65
2023/07/05 10:18:43;;;;;;;4.90;2.70;;;;;;;;;;5093293;28;20460;-65
2023/07/05 10:21:19;;;;;;;4.27;2.77;;;;;;;;;;5093332;28;20993;-64
2023/07/05 10:23:48;;;;;;;3.03;2.73;;;;;;;;;;5093104;28;20433;-64
2023/07/05 10:26:18;;;;;;;6.30;2.80;;;;;;;;;;5093506;28;20476;-64
2023/07/05 10:28:46;;;;;;;7.00;2.80;;;;;;;;;;5093633;28;20489;-64
2023/07/05 10:31:26;;;;;;;5.90;2.17;;;;;;;;;;5093529;28;20476;-64
2023/07/05 10:34:04;;;;;;;2.87;2.10;;;;;;;;;;5093505;28;20810;-65
2023/07/05 10:36:33;;;;;;;10.27;3.23;;;;;;;;;;5093739;28;20531;-64
2023/07/05 10:39:00;;;;;;;4.10;2.77;;;;;;;;;;5093144;28;20447;-64
2023/07/05 10:41:31;;;;;;;6.73;3.30;;;;;;;;;;5093285;28;20449;-64
2023/07/05 10:44:02;;;;;;;10.37;2.80;;;;;;;;;;5093273;28;20425;-65
2023/07/05 10:46:30;;;;;;;6.87;2.70;;;;;;;;;;5093630;28;20476;-64
2023/07/05 10:48:58;;;;;;;3.40;2.60;;;;;;;;;;5093100;28;20448;-65
2023/07/05 10:51:27;;;;;;;7.20;2.70;;;;;;;;;;5093704;28;20441;-64
2023/07/05 10:53:59;;;;;;;9.50;3.03;;;;;;;;;;5092692;28;20491;-65
2023/07/05 10:56:28;;;;;;;7.30;2.40;;;;;;;;;;5093375;28;20434;-64
2023/07/05 10:59:00;;;;;;;4.43;3.17;;;;;;;;;;5093076;28;20782;-64
2023/07/05 11:01:30;;;;;;;7.27;2.50;;;;;;;;;;5093229;28;20450;-64
2023/07/05 11:03:58;;;;;;;3.27;2.03;;;;;;;;;;5093043;28;20467;-64
2023/07/05 11:06:27;;;;;;;6.57;2.63;;;;;;;;;;5093011;28;20471;-65
2023/07/05 11:08:54;;;;;;;4.20;2.77;;;;;;;;;;5092886;28;20557;-65
2023/07/05 11:11:25;;;;;;;5.30;3.20;;;;;;;;;;5092863;28;20448;-65
2023/07/05 11:13:53;;;;;;;4.70;3.17;;;;;;;;;;5092629;28;20433;-64
2023/07/05 11:16:22;;;;;;;4.03;2.40;;;;;;;;;;5092978;28;20446;-67
2023/07/05 11:18:50;;;;;;;5.03;2.80;;;;;;;;;;5093783;28;20452;-65
2023/07/05 11:21:36;;;;;;;9.83;3.27;;;;;;;;;;5096285;28;20539;-65
2023/07/05 11:24:05;;;;;;;4.30;2.70;;;;;;;;;;5095682;28;20445;-65
2023/07/05 11:26:35;;;;;;;3.73;2.97;;;;;;;;;;5096520;28;20559;-65
2023/07/05 11:29:22;;;;;;;3.70;2.77;;;;;;;;;;5095845;28;20454;-66
2023/07/05 11:32:02;;;;;;;4.80;2.67;;;;;;;;;;5096512;28;20458;-65
2023/07/05 11:34:41;;;;;;;4.57;2.60;;;;;;;;;;5096302;28;20440;-64
2023/07/05 11:37:24;;;;;;;3.03;2.50;;;;;;;;;;5096897;28;20542;-65
2023/07/05 11:39:51;;;;;;;5.87;2.30;;;;;;;;;;5083573;28;20465;-65
2023/07/05 11:42:37;;;;;;;5.50;2.63;;;;;;;;;;5096160;28;20442;-65
2023/07/05 11:45:23;;;;;;;7.20;3.00;;;;;;;;;;5095637;28;20969;-65
2023/07/05 11:47:51;;;;;;;4.17;2.20;;;;;;;;;;5095926;28;20476;-65
2023/07/05 11:50:20;;;;;;;3.43;2.43;;;;;;;;;;5095610;28;20448;-64
2023/07/05 11:52:49;;;;;;;6.37;2.80;;;;;;;;;;5095083;28;20446;-66
2023/07/05 11:55:18;;;;;;;7.73;2.67;;;;;;;;;;5075508;28;20450;-64
2023/07/05 11:57:48;;;;;;;7.73;2.33;;;;;;;;;;5075264;28;20448;-65
2023/07/05 12:00:18;;;;;;;3.50;2.13;;;;;;;;;;5075344;28;20432;-67
2023/07/05 12:02:55;;;;;;;7.37;2.90;;;;;;;;;;5075113;28;20535;-65
2023/07/05 12:05:25;;;;;;;3.70;2.13;;;;;;;;;;5075385;28;20439;-66
2023/07/05 12:07:54;;;;;;;5.53;2.07;;;;;;;;;;5075002;28;20472;-65
2023/07/05 12:10:24;;;;;;;2.43;2.20;;;;;;;;;;5075279;28;20444;-64
2023/07/05 12:12:51;;;;;;;6.30;2.37;;;;;;;;;;5075199;28;20448;-65
2023/07/05 12:15:18;;;;;;;4.10;2.50;;;;;;;;;;5074895;28;20444;-65
2023/07/05 12:17:46;;;;;;;6.57;3.60;;;;;;;;;;5075163;28;20784;-65
2023/07/05 12:20:28;;;;;;;2.63;2.27;;;;;;;;;;5075259;28;20808;-65
2023/07/05 12:22:55;;;;;;;2.83;2.40;;;;;;;;;;5079882;28;20436;-65
2023/07/05 12:25:24;;;;;;;5.47;2.27;;;;;;;;;;5095173;28;20440;-65
2023/07/05 12:27:52;;;;;;;5.13;3.00;;;;;;;;;;5095015;28;20478;-66
2023/07/05 12:30:21;;;;;;;4.33;2.30;;;;;;;;;;5094941;28;20437;-65
2023/07/05 12:32:52;;;;;;;7.40;3.40;;;;;;;;;;5094674;28;20539;-64
2023/07/05 12:35:21;;;;;;;6.77;3.93;;;;;;;;;;5094761;28;20449;-64
2023/07/05 12:37:50;;;;;;;3.90;2.37;;;;;;;;;;5094949;28;20944;-64
2023/07/05 12:40:22;;;;;;;13.90;2.93;;;;;;;;;;5094623;28;20446;-64
2023/07/05 12:42:50;;;;;;;3.50;2.20;;;;;;;;;;5094907;28;20511;-65
2023/07/05 12:45:19;;;;;;;5.93;2.77;;;;;;;;;;5094380;28;20448;-65
2023/07/05 12:47:46;;;;;;;4.93;3.10;;;;;;;;;;5094394;28;20477;-64
2023/07/05 12:50:20;;;;;;;3.60;2.30;;;;;;;;;;5094384;28;20461;-64
2023/07/05 12:53:01;;;;;;;6.60;2.80;;;;;;;;;;5095095;28;20492;-64
2023/07/05 12:55:29;;;;;;;3.70;2.10;;;;;;;;;;5094819;28;20462;-65
2023/07/05 12:57:57;;;;;;;7.90;2.63;;;;;;;;;;5094328;28;20450;-65
2023/07/05 13:00:24;;;;;;;8.03;2.90;;;;;;;;;;5094564;28;20794;-65
2023/07/05 13:02:53;;;;;;;5.70;2.40;;;;;;;;;;5094680;28;20542;-64
2023/07/05 13:05:20;;;;;;;3.60;2.30;;;;;;;;;;5094969;28;20446;-65
2023/07/05 13:07:50;;;;;;;6.10;2.77;;;;;;;;;;5094586;28;20528;-64
2023/07/05 13:10:19;;;;;;;3.10;2.30;;;;;;;;;;5094942;28;20449;-65
2023/07/05 13:12:48;;;;;;;4.03;2.93;;;;;;;;;;5094416;28;20533;-66
2023/07/05 13:15:16;;;;;;;4.97;2.30;;;;;;;;;;5094410;28;20454;-65
2023/07/05 13:17:43;;;;;;;6.73;2.43;;;;;;;;;;5094279;28;20451;-65
2023/07/05 13:20:12;;;;;;;3.33;2.27;;;;;;;;;;5093998;28;20476;-65
2023/07/05 13:22:43;;;;;;;1.90;1.80;;;;;;;;;;5093914;28;20427;-66
2023/07/05 13:25:25;;;;;;;4.13;2.27;;;;;;;;;;5094566;28;20852;-65
2023/07/05 13:27:55;;;;;;;13.07;2.40;;;;;;;;;;5091749;28;20482;-65
2023/07/05 13:30:25;;;;;;;6.43;2.23;;;;;;;;;;5094183;28;20424;-64
2023/07/05 13:32:52;;;;;;;8.83;3.33;;;;;;;;;;5093670;28;20451;-64
2023/07/05 13:35:19;;;;;;;3.67;2.43;;;;;;;;;;5094000;28;20631;-64
2023/07/05 13:37:47;;;;;;;2.83;2.47;;;;;;;;;;5093609;28;20455;-65
2023/07/05 13:40:18;;;;;;;3.37;2.13;;;;;;;;;;5093480;28;20974;-66
2023/07/05 13:42:47;;;;;;;7.07;2.07;;;;;;;;;;5093385;28;20431;-65
2023/07/05 13:45:17;;;;;;;4.67;2.23;;;;;;;;;;5093614;28;20443;-63
2023/07/05 13:47:44;;;;;;;3.07;2.10;;;;;;;;;;5093321;28;20471;-62
2023/07/05 13:50:13;;;;;;;4.10;2.23;;;;;;;;;;5093719;28;20470;-63
2023/07/05 13:52:40;;;;;;;3.30;2.53;;;;;;;;;;5093583;28;20501;-63
2023/07/05 13:55:08;;;;;;;5.57;2.97;;;;;;;;;;5093661;28;20742;-63
2023/07/05 13:57:36;;;;;;;3.33;2.63;;;;;;;;;;5077460;28;20451;-63
2023/07/05 14:00:04;;;;;;;6.80;2.80;;;;;;;;;;5073276;28;20440;-63
2023/07/05 14:02:34;;;;;;;4.60;2.50;;;;;;;;;;5073514;28;20452;-63
2023/07/05 14:05:03;;;;;;;6.47;2.60;;;;;;;;;;5073300;28;20789;-62
2023/07/05 14:07:31;;;;;;;5.73;2.70;;;;;;;;;;5072967;28;20474;-63
2023/07/05 14:09:59;;;;;;;4.00;2.60;;;;;;;;;;5072969;28;20459;-64
2023/07/05 14:12:26;;;;;;;4.03;3.00;;;;;;;;;;5072647;28;20447;-63
2023/07/05 14:14:53;;;;;;;6.07;3.00;;;;;;;;;;5072792;28;20471;-63
2023/07/05 14:17:22;;;;;;;3.80;2.73;;;;;;;;;;5072694;28;20460;-63
2023/07/05 14:19:51;;;;;;;6.13;2.60;;;;;;;;;;5072454;28;20484;-63
2023/07/05 14:22:20;;;;;;;5.83;2.67;;;;;;;;;;5073064;28;20919;-63
2023/07/05 14:24:48;;;;;;;4.97;2.83;;;;;;;;;;5072861;28;20441;-63
2023/07/05 14:27:18;;;;;;;5.87;2.80;;;;;;;;;;5084699;28;20939;-62
2023/07/05 14:29:46;;;;;;;3.73;2.83;;;;;;;;;;5093241;28;20441;-63
2023/07/05 14:32:14;;;;;;;3.23;2.47;;;;;;;;;;5092628;28;20504;-63
2023/07/05 14:34:41;;;;;;;5.20;3.10;;;;;;;;;;5093584;28;20442;-63
2023/07/05 14:37:10;;;;;;;5.50;3.10;;;;;;;;;;5093346;28;20443;-63
2023/07/05 14:39:37;;;;;;;4.63;2.87;;;;;;;;;;5093165;28;20466;-63
2023/07/05 14:42:04;;;;;;;5.37;3.67;;;;;;;;;;5092832;28;20444;-62
2023/07/05 14:44:32;;;;;;;3.40;3.00;;;;;;;;;;5092770;28;20967;-63
2023/07/05 14:47:00;;;;;;;4.13;2.60;;;;;;;;;;5092522;28;20488;-63
2023/07/05 14:49:27;;;;;;;3.77;2.80;;;;;;;;;;5093072;28;20486;-63
2023/07/05 14:51:54;;;;;;;5.73;3.03;;;;;;;;;;5092565;28;20539;-64